OWB Airport (Owensboro-Daviess County Rgnl) Information

FAA: OWB - ICAO: KOWB

OWB Airport Location

State Kentucky
County Daviess
City Owensboro
OWB Airport is 3 miles southwest of Owensboro, KY.
Latitude 37-44-19.8030N
Longitude 087-10-00.5828W
Elevation 407ft

KOWB Airport METARs

METAR KOWB 032156Z 20005KT 10SM CLR 18/10 A2991 RMK AO2 SLP129 T01830100
Altimeter 29.91"
Temperature 18.3°C (64.9°F)
Wind 200° at 5KT
Clouds Skies are clear.
Visibility 10.0mi
Time observed: 2021-12-03T21:56:00Z

OWB Airport Details

Status Operational
Activation December 1949
Ownership Public
Usage Public
Chart ST LOUIS
ATC on-site Yes
Beacon schedule sunset-sunrise
Beacon color clear green

OWB Airport Contacts

Owner OWENSBORO CITY & DAVIESS COUNTY
Owner address 2200 AIRPORT ROAD, OWENSBORO, KY 42303
Owner phone 270-685-4179
Manager DANNY HILL
Manager address 709 AIRPORT ROAD, MT. STERLING, KY 40353
Manager phone 859-498-1000

OWB Airport (Owensboro-Daviess County Rgnl) Radio Frequencies

OWB (Airport) Radio Frequencies

UNICOM 122.95
Common traffic advisory frequency (CTAF) 120.7